sensor_id;sensor_type;location;lat;lon;timestamp;P1;durP1;ratioP1;P2;durP2;ratioP2
80748;SDS011;70145;53.746;9.970;2024-01-15T00:02:01;6.07;;;0.80;;
80748;SDS011;70145;53.746;9.970;2024-01-15T00:04:28;8.18;;;1.40;;
80748;SDS011;70145;53.746;9.970;2024-01-15T00:06:53;7.20;;;0.90;;
80748;SDS011;70145;53.746;9.970;2024-01-15T00:09:18;4.55;;;1.05;;
80748;SDS011;70145;53.746;9.970;2024-01-15T00:11:43;4.97;;;0.75;;
80748;SDS011;70145;53.746;9.970;2024-01-15T00:14:09;2.63;;;0.70;;
80748;SDS011;70145;53.746;9.970;2024-01-15T00:16:35;6.03;;;0.93;;
80748;SDS011;70145;53.746;9.970;2024-01-15T00:19:00;8.77;;;1.17;;
80748;SDS011;70145;53.746;9.970;2024-01-15T00:21:26;4.15;;;1.23;;
80748;SDS011;70145;53.746;9.970;2024-01-15T00:23:52;5.70;;;1.17;;
80748;SDS011;70145;53.746;9.970;2024-01-15T00:26:18;6.65;;;0.68;;
80748;SDS011;70145;53.746;9.970;2024-01-15T00:28:43;8.70;;;0.80;;
80748;SDS011;70145;53.746;9.970;2024-01-15T00:31:09;9.57;;;1.53;;
80748;SDS011;70145;53.746;9.970;2024-01-15T00:33:34;5.90;;;0.73;;
80748;SDS011;70145;53.746;9.970;2024-01-15T00:36:00;7.65;;;1.55;;
80748;SDS011;70145;53.746;9.970;2024-01-15T00:38:26;6.78;;;0.85;;
80748;SDS011;70145;53.746;9.970;2024-01-15T00:40:51;9.03;;;1.10;;
80748;SDS011;70145;53.746;9.970;2024-01-15T00:43:16;5.60;;;0.80;;
80748;SDS011;70145;53.746;9.970;2024-01-15T00:45:44;5.03;;;0.93;;
80748;SDS011;70145;53.746;9.970;2024-01-15T00:48:09;4.18;;;1.00;;
80748;SDS011;70145;53.746;9.970;2024-01-15T00:50:34;8.73;;;0.90;;
80748;SDS011;70145;53.746;9.970;2024-01-15T00:53:00;3.80;;;0.85;;
80748;SDS011;70145;53.746;9.970;2024-01-15T00:55:25;4.07;;;0.95;;
80748;SDS011;70145;53.746;9.970;2024-01-15T00:57:50;7.63;;;1.53;;
80748;SDS011;70145;53.746;9.970;2024-01-15T01:00:16;4.40;;;1.10;;
80748;SDS011;70145;53.746;9.970;2024-01-15T01:02:41;3.92;;;0.70;;
80748;SDS011;70145;53.746;9.970;2024-01-15T01:05:07;5.25;;;1.27;;
80748;SDS011;70145;53.746;9.970;2024-01-15T01:07:32;6.00;;;1.10;;
80748;SDS011;70145;53.746;9.970;2024-01-15T01:09:57;12.52;;;1.45;;
80748;SDS011;70145;53.746;9.970;2024-01-15T01:12:23;6.57;;;1.10;;
80748;SDS011;70145;53.746;9.970;2024-01-15T01:14:48;9.13;;;1.07;;
80748;SDS011;70145;53.746;9.970;2024-01-15T01:17:13;5.47;;;0.63;;
80748;SDS011;70145;53.746;9.970;2024-01-15T01:19:38;3.40;;;0.70;;
80748;SDS011;70145;53.746;9.970;2024-01-15T01:22:04;6.20;;;1.03;;
80748;SDS011;70145;53.746;9.970;2024-01-15T01:24:29;5.63;;;1.02;;
80748;SDS011;70145;53.746;9.970;2024-01-15T01:26:54;3.58;;;0.80;;
80748;SDS011;70145;53.746;9.970;2024-01-15T01:29:20;4.53;;;1.03;;
80748;SDS011;70145;53.746;9.970;2024-01-15T01:31:45;3.93;;;0.97;;
80748;SDS011;70145;53.746;9.970;2024-01-15T01:34:13;5.15;;;0.65;;
80748;SDS011;70145;53.746;9.970;2024-01-15T01:36:39;5.97;;;0.63;;
80748;SDS011;70145;53.746;9.970;2024-01-15T01:39:04;3.17;;;0.80;;
80748;SDS011;70145;53.746;9.970;2024-01-15T01:41:30;2.67;;;0.50;;
80748;SDS011;70145;53.746;9.970;2024-01-15T01:43:55;4.32;;;1.05;;
80748;SDS011;70145;53.746;9.970;2024-01-15T01:46:22;7.20;;;1.25;;
80748;SDS011;70145;53.746;9.970;2024-01-15T01:48:48;9.18;;;1.15;;
80748;SDS011;70145;53.746;9.970;2024-01-15T01:51:13;8.98;;;1.17;;
80748;SDS011;70145;53.746;9.970;2024-01-15T01:53:40;10.13;;;0.82;;
80748;SDS011;70145;53.746;9.970;2024-01-15T01:56:05;7.22;;;0.90;;
80748;SDS011;70145;53.746;9.970;2024-01-15T01:58:32;8.75;;;1.27;;
80748;SDS011;70145;53.746;9.970;2024-01-15T02:00:58;3.28;;;1.55;;
80748;SDS011;70145;53.746;9.970;2024-01-15T02:03:24;5.63;;;0.70;;
80748;SDS011;70145;53.746;9.970;2024-01-15T02:05:49;4.93;;;1.08;;
80748;SDS011;70145;53.746;9.970;2024-01-15T02:08:15;7.15;;;1.20;;
80748;SDS011;70145;53.746;9.970;2024-01-15T02:10:41;3.13;;;0.45;;
80748;SDS011;70145;53.746;9.970;2024-01-15T02:13:06;5.20;;;0.70;;
80748;SDS011;70145;53.746;9.970;2024-01-15T02:15:32;5.50;;;0.73;;
80748;SDS011;70145;53.746;9.970;2024-01-15T02:20:24;8.80;;;1.10;;
80748;SDS011;70145;53.746;9.970;2024-01-15T02:22:50;5.18;;;0.70;;
80748;SDS011;70145;53.746;9.970;2024-01-15T02:25:15;6.22;;;0.82;;
80748;SDS011;70145;53.746;9.970;2024-01-15T02:27:40;4.97;;;0.65;;
80748;SDS011;70145;53.746;9.970;2024-01-15T02:30:07;4.30;;;0.65;;
80748;SDS011;70145;53.746;9.970;2024-01-15T02:32:35;5.60;;;1.02;;
80748;SDS011;70145;53.746;9.970;2024-01-15T02:35:00;7.03;;;0.83;;
80748;SDS011;70145;53.746;9.970;2024-01-15T02:37:25;5.27;;;0.90;;
80748;SDS011;70145;53.746;9.970;2024-01-15T02:39:50;4.63;;;0.67;;
80748;SDS011;70145;53.746;9.970;2024-01-15T02:42:16;4.80;;;0.30;;
80748;SDS011;70145;53.746;9.970;2024-01-15T02:44:41;7.83;;;0.80;;
80748;SDS011;70145;53.746;9.970;2024-01-15T02:47:06;5.07;;;0.47;;
80748;SDS011;70145;53.746;9.970;2024-01-15T02:49:31;5.33;;;0.90;;
80748;SDS011;70145;53.746;9.970;2024-01-15T02:51:57;8.45;;;0.98;;
80748;SDS011;70145;53.746;9.970;2024-01-15T02:54:23;6.45;;;0.73;;
80748;SDS011;70145;53.746;9.970;2024-01-15T02:56:48;5.22;;;0.68;;
80748;SDS011;70145;53.746;9.970;2024-01-15T02:59:13;4.97;;;0.50;;
80748;SDS011;70145;53.746;9.970;2024-01-15T03:01:38;9.70;;;1.20;;
80748;SDS011;70145;53.746;9.970;2024-01-15T03:04:04;5.80;;;0.70;;
80748;SDS011;70145;53.746;9.970;2024-01-15T03:06:29;5.85;;;0.90;;
80748;SDS011;70145;53.746;9.970;2024-01-15T03:08:54;3.72;;;0.77;;
80748;SDS011;70145;53.746;9.970;2024-01-15T03:11:20;8.30;;;0.80;;
80748;SDS011;70145;53.746;9.970;2024-01-15T03:13:45;10.00;;;0.98;;
80748;SDS011;70145;53.746;9.970;2024-01-15T03:16:10;7.40;;;0.83;;
80748;SDS011;70145;53.746;9.970;2024-01-15T03:18:36;5.05;;;0.70;;
80748;SDS011;70145;53.746;9.970;2024-01-15T03:21:01;4.97;;;1.03;;
80748;SDS011;70145;53.746;9.970;2024-01-15T03:23:26;11.37;;;1.30;;
80748;SDS011;70145;53.746;9.970;2024-01-15T03:25:52;5.20;;;1.30;;
80748;SDS011;70145;53.746;9.970;2024-01-15T03:28:17;5.57;;;1.13;;
80748;SDS011;70145;53.746;9.970;2024-01-15T03:30:42;5.07;;;0.80;;
80748;SDS011;70145;53.746;9.970;2024-01-15T03:33:07;7.10;;;1.00;;
80748;SDS011;70145;53.746;9.970;2024-01-15T03:35:33;5.85;;;0.88;;
80748;SDS011;70145;53.746;9.970;2024-01-15T03:37:58;6.05;;;0.73;;
80748;SDS011;70145;53.746;9.970;2024-01-15T03:40:23;7.17;;;0.87;;
80748;SDS011;70145;53.746;9.970;2024-01-15T03:42:49;7.37;;;0.80;;
80748;SDS011;70145;53.746;9.970;2024-01-15T03:45:14;5.33;;;0.90;;
80748;SDS011;70145;53.746;9.970;2024-01-15T03:47:39;6.63;;;0.77;;
80748;SDS011;70145;53.746;9.970;2024-01-15T03:50:05;8.85;;;1.00;;
80748;SDS011;70145;53.746;9.970;2024-01-15T03:52:31;6.78;;;1.08;;
80748;SDS011;70145;53.746;9.970;2024-01-15T03:54:56;8.15;;;1.20;;
80748;SDS011;70145;53.746;9.970;2024-01-15T03:57:21;7.88;;;1.08;;
80748;SDS011;70145;53.746;9.970;2024-01-15T03:59:47;10.87;;;1.20;;
80748;SDS011;70145;53.746;9.970;2024-01-15T04:02:12;5.38;;;1.13;;
80748;SDS011;70145;53.746;9.970;2024-01-15T04:04:40;9.35;;;1.30;;
80748;SDS011;70145;53.746;9.970;2024-01-15T04:07:07;8.35;;;1.60;;
80748;SDS011;70145;53.746;9.970;2024-01-15T04:09:32;12.23;;;1.50;;
80748;SDS011;70145;53.746;9.970;2024-01-15T04:11:57;11.70;;;1.97;;
80748;SDS011;70145;53.746;9.970;2024-01-15T04:14:22;13.80;;;2.13;;
80748;SDS011;70145;53.746;9.970;2024-01-15T04:16:48;9.85;;;1.20;;
80748;SDS011;70145;53.746;9.970;2024-01-15T04:19:13;10.90;;;1.17;;
80748;SDS011;70145;53.746;9.970;2024-01-15T04:21:38;9.37;;;1.30;;
80748;SDS011;70145;53.746;9.970;2024-01-15T04:26:32;8.45;;;1.60;;
80748;SDS011;70145;53.746;9.970;2024-01-15T04:28:57;8.80;;;1.57;;
80748;SDS011;70145;53.746;9.970;2024-01-15T04:31:24;10.95;;;1.73;;
80748;SDS011;70145;53.746;9.970;2024-01-15T04:33:51;8.98;;;1.45;;
80748;SDS011;70145;53.746;9.970;2024-01-15T04:36:17;11.60;;;1.90;;
80748;SDS011;70145;53.746;9.970;2024-01-15T04:38:42;14.82;;;1.67;;
80748;SDS011;70145;53.746;9.970;2024-01-15T04:41:10;12.00;;;1.70;;
80748;SDS011;70145;53.746;9.970;2024-01-15T04:43:37;3.92;;;1.02;;
80748;SDS011;70145;53.746;9.970;2024-01-15T04:46:02;13.47;;;1.80;;
80748;SDS011;70145;53.746;9.970;2024-01-15T04:48:28;8.13;;;1.42;;
80748;SDS011;70145;53.746;9.970;2024-01-15T04:50:54;9.25;;;2.28;;
80748;SDS011;70145;53.746;9.970;2024-01-15T04:53:19;11.03;;;1.63;;
80748;SDS011;70145;53.746;9.970;2024-01-15T04:55:45;13.50;;;1.53;;
80748;SDS011;70145;53.746;9.970;2024-01-15T04:58:10;12.80;;;1.83;;
80748;SDS011;70145;53.746;9.970;2024-01-15T05:00:35;11.63;;;1.63;;
80748;SDS011;70145;53.746;9.970;2024-01-15T05:03:00;10.80;;;1.50;;
80748;SDS011;70145;53.746;9.970;2024-01-15T05:05:26;9.20;;;1.63;;
80748;SDS011;70145;53.746;9.970;2024-01-15T05:07:51;11.87;;;1.97;;
80748;SDS011;70145;53.746;9.970;2024-01-15T05:10:16;9.77;;;1.97;;
80748;SDS011;70145;53.746;9.970;2024-01-15T05:12:41;12.73;;;1.73;;
80748;SDS011;70145;53.746;9.970;2024-01-15T05:15:07;14.93;;;1.83;;
80748;SDS011;70145;53.746;9.970;2024-01-15T05:17:32;10.90;;;2.47;;
80748;SDS011;70145;53.746;9.970;2024-01-15T05:19:57;11.27;;;2.10;;
80748;SDS011;70145;53.746;9.970;2024-01-15T05:22:23;13.05;;;2.22;;
80748;SDS011;70145;53.746;9.970;2024-01-15T05:24:49;10.45;;;1.80;;
80748;SDS011;70145;53.746;9.970;2024-01-15T05:27:15;18.27;;;1.63;;
80748;SDS011;70145;53.746;9.970;2024-01-15T05:29:40;9.97;;;1.70;;
80748;SDS011;70145;53.746;9.970;2024-01-15T05:32:05;8.53;;;2.00;;
80748;SDS011;70145;53.746;9.970;2024-01-15T05:34:30;13.27;;;2.30;;
80748;SDS011;70145;53.746;9.970;2024-01-15T05:36:56;11.88;;;2.25;;
80748;SDS011;70145;53.746;9.970;2024-01-15T05:39:21;10.47;;;1.50;;
80748;SDS011;70145;53.746;9.970;2024-01-15T05:41:46;16.07;;;2.10;;
80748;SDS011;70145;53.746;9.970;2024-01-15T05:44:11;8.50;;;1.57;;
80748;SDS011;70145;53.746;9.970;2024-01-15T05:46:37;15.17;;;1.97;;
80748;SDS011;70145;53.746;9.970;2024-01-15T05:49:02;11.07;;;1.80;;
80748;SDS011;70145;53.746;9.970;2024-01-15T05:51:27;9.07;;;1.77;;
80748;SDS011;70145;53.746;9.970;2024-01-15T05:53:52;13.63;;;1.83;;
80748;SDS011;70145;53.746;9.970;2024-01-15T05:56:18;9.17;;;1.60;;
80748;SDS011;70145;53.746;9.970;2024-01-15T05:58:43;16.80;;;3.03;;
80748;SDS011;70145;53.746;9.970;2024-01-15T06:01:08;16.33;;;3.43;;
80748;SDS011;70145;53.746;9.970;2024-01-15T06:03:34;13.93;;;2.20;;
80748;SDS011;70145;53.746;9.970;2024-01-15T06:06:00;11.20;;;2.13;;
80748;SDS011;70145;53.746;9.970;2024-01-15T06:08:25;10.80;;;1.67;;
80748;SDS011;70145;53.746;9.970;2024-01-15T06:10:52;10.48;;;1.67;;
80748;SDS011;70145;53.746;9.970;2024-01-15T06:13:17;9.47;;;1.80;;
80748;SDS011;70145;53.746;9.970;2024-01-15T06:15:43;7.97;;;1.37;;
80748;SDS011;70145;53.746;9.970;2024-01-15T06:18:08;9.93;;;1.13;;
80748;SDS011;70145;53.746;9.970;2024-01-15T06:20:33;6.85;;;1.42;;
80748;SDS011;70145;53.746;9.970;2024-01-15T06:22:58;8.97;;;0.83;;
80748;SDS011;70145;53.746;9.970;2024-01-15T06:25:24;7.80;;;1.40;;
80748;SDS011;70145;53.746;9.970;2024-01-15T06:27:49;5.47;;;1.00;;
80748;SDS011;70145;53.746;9.970;2024-01-15T06:30:14;9.70;;;0.90;;
80748;SDS011;70145;53.746;9.970;2024-01-15T06:32:40;6.40;;;0.90;;
80748;SDS011;70145;53.746;9.970;2024-01-15T06:35:05;7.32;;;0.73;;
80748;SDS011;70145;53.746;9.970;2024-01-15T06:37:31;6.60;;;1.30;;
80748;SDS011;70145;53.746;9.970;2024-01-15T06:39:57;3.75;;;1.23;;
80748;SDS011;70145;53.746;9.970;2024-01-15T06:42:23;10.93;;;1.20;;
80748;SDS011;70145;53.746;9.970;2024-01-15T06:44:48;7.07;;;0.98;;
80748;SDS011;70145;53.746;9.970;2024-01-15T06:47:14;4.22;;;1.05;;
80748;SDS011;70145;53.746;9.970;2024-01-15T06:49:39;10.20;;;1.67;;
80748;SDS011;70145;53.746;9.970;2024-01-15T06:52:05;6.70;;;1.30;;
80748;SDS011;70145;53.746;9.970;2024-01-15T06:54:31;9.57;;;1.85;;
80748;SDS011;70145;53.746;9.970;2024-01-15T06:56:56;3.85;;;1.10;;
80748;SDS011;70145;53.746;9.970;2024-01-15T06:59:21;6.38;;;1.10;;
80748;SDS011;70145;53.746;9.970;2024-01-15T07:01:47;3.53;;;0.50;;
80748;SDS011;70145;53.746;9.970;2024-01-15T07:04:12;2.83;;;0.63;;
80748;SDS011;70145;53.746;9.970;2024-01-15T07:06:38;7.68;;;0.95;;
80748;SDS011;70145;53.746;9.970;2024-01-15T07:09:03;6.22;;;0.88;;
80748;SDS011;70145;53.746;9.970;2024-01-15T07:11:29;8.07;;;1.40;;
80748;SDS011;70145;53.746;9.970;2024-01-15T07:13:54;4.20;;;0.90;;
80748;SDS011;70145;53.746;9.970;2024-01-15T07:16:19;6.17;;;0.70;;
80748;SDS011;70145;53.746;9.970;2024-01-15T07:18:45;4.75;;;0.57;;
80748;SDS011;70145;53.746;9.970;2024-01-15T07:21:10;4.27;;;1.53;;
80748;SDS011;70145;53.746;9.970;2024-01-15T07:23:35;4.03;;;0.40;;
80748;SDS011;70145;53.746;9.970;2024-01-15T07:26:00;4.00;;;0.68;;
80748;SDS011;70145;53.746;9.970;2024-01-15T07:28:28;4.03;;;0.53;;
80748;SDS011;70145;53.746;9.970;2024-01-15T07:30:54;7.03;;;0.95;;
80748;SDS011;70145;53.746;9.970;2024-01-15T07:33:19;4.40;;;0.87;;
80748;SDS011;70145;53.746;9.970;2024-01-15T07:35:44;5.93;;;0.83;;
80748;SDS011;70145;53.746;9.970;2024-01-15T07:38:09;5.72;;;1.00;;
80748;SDS011;70145;53.746;9.970;2024-01-15T07:40:37;7.35;;;1.25;;
80748;SDS011;70145;53.746;9.970;2024-01-15T07:43:02;6.90;;;1.50;;
80748;SDS011;70145;53.746;9.970;2024-01-15T07:45:27;9.70;;;2.15;;
80748;SDS011;70145;53.746;9.970;2024-01-15T07:47:53;6.03;;;0.98;;
80748;SDS011;70145;53.746;9.970;2024-01-15T07:50:18;4.00;;;1.00;;
80748;SDS011;70145;53.746;9.970;2024-01-15T07:52:43;6.13;;;0.95;;
80748;SDS011;70145;53.746;9.970;2024-01-15T07:55:09;3.00;;;0.93;;
80748;SDS011;70145;53.746;9.970;2024-01-15T07:57:34;5.38;;;1.20;;
80748;SDS011;70145;53.746;9.970;2024-01-15T08:00:00;3.33;;;0.88;;
80748;SDS011;70145;53.746;9.970;2024-01-15T08:02:26;6.18;;;0.93;;
80748;SDS011;70145;53.746;9.970;2024-01-15T08:04:52;6.05;;;0.80;;
80748;SDS011;70145;53.746;9.970;2024-01-15T08:07:17;5.30;;;1.13;;
80748;SDS011;70145;53.746;9.970;2024-01-15T08:09:42;5.72;;;0.70;;
80748;SDS011;70145;53.746;9.970;2024-01-15T08:12:08;3.40;;;0.98;;
80748;SDS011;70145;53.746;9.970;2024-01-15T08:14:35;4.68;;;1.10;;
80748;SDS011;70145;53.746;9.970;2024-01-15T08:17:00;6.03;;;1.33;;
80748;SDS011;70145;53.746;9.970;2024-01-15T08:19:26;4.07;;;0.73;;
80748;SDS011;70145;53.746;9.970;2024-01-15T08:21:52;8.05;;;1.45;;
80748;SDS011;70145;53.746;9.970;2024-01-15T08:24:18;5.95;;;0.68;;
80748;SDS011;70145;53.746;9.970;2024-01-15T08:26:43;3.63;;;0.47;;
80748;SDS011;70145;53.746;9.970;2024-01-15T08:29:08;4.40;;;0.55;;
80748;SDS011;70145;53.746;9.970;2024-01-15T08:31:34;4.30;;;0.82;;
80748;SDS011;70145;53.746;9.970;2024-01-15T08:33:59;6.55;;;1.10;;
80748;SDS011;70145;53.746;9.970;2024-01-15T08:36:26;7.05;;;1.23;;
80748;SDS011;70145;53.746;9.970;2024-01-15T08:38:53;4.00;;;1.50;;
80748;SDS011;70145;53.746;9.970;2024-01-15T08:41:18;5.20;;;1.00;;
80748;SDS011;70145;53.746;9.970;2024-01-15T08:43:43;6.53;;;1.77;;
80748;SDS011;70145;53.746;9.970;2024-01-15T08:46:09;5.87;;;2.10;;
80748;SDS011;70145;53.746;9.970;2024-01-15T08:48:34;5.87;;;1.33;;
80748;SDS011;70145;53.746;9.970;2024-01-15T08:50:59;5.60;;;0.97;;
80748;SDS011;70145;53.746;9.970;2024-01-15T08:53:24;8.38;;;1.55;;
80748;SDS011;70145;53.746;9.970;2024-01-15T08:55:50;7.10;;;1.20;;
80748;SDS011;70145;53.746;9.970;2024-01-15T08:58:16;7.97;;;1.17;;
80748;SDS011;70145;53.746;9.970;2024-01-15T09:00:41;7.47;;;0.97;;
80748;SDS011;70145;53.746;9.970;2024-01-15T09:03:06;5.30;;;1.40;;
80748;SDS011;70145;53.746;9.970;2024-01-15T09:05:33;11.65;;;1.65;;
80748;SDS011;70145;53.746;9.970;2024-01-15T09:07:59;12.85;;;1.58;;
80748;SDS011;70145;53.746;9.970;2024-01-15T09:10:24;6.63;;;1.40;;
80748;SDS011;70145;53.746;9.970;2024-01-15T09:12:49;6.95;;;0.75;;
80748;SDS011;70145;53.746;9.970;2024-01-15T09:15:14;6.93;;;0.80;;
80748;SDS011;70145;53.746;9.970;2024-01-15T09:17:40;4.25;;;0.82;;
80748;SDS011;70145;53.746;9.970;2024-01-15T09:20:06;7.60;;;1.37;;
80748;SDS011;70145;53.746;9.970;2024-01-15T09:22:32;5.50;;;0.85;;
80748;SDS011;70145;53.746;9.970;2024-01-15T09:24:58;4.38;;;0.63;;
80748;SDS011;70145;53.746;9.970;2024-01-15T09:27:23;3.72;;;0.60;;
80748;SDS011;70145;53.746;9.970;2024-01-15T09:29:51;3.17;;;0.90;;
80748;SDS011;70145;53.746;9.970;2024-01-15T09:32:16;6.93;;;1.13;;
80748;SDS011;70145;53.746;9.970;2024-01-15T09:34:42;6.97;;;1.77;;
80748;SDS011;70145;53.746;9.970;2024-01-15T09:37:07;6.20;;;0.93;;
80748;SDS011;70145;53.746;9.970;2024-01-15T09:39:32;7.93;;;1.48;;
80748;SDS011;70145;53.746;9.970;2024-01-15T09:41:58;7.78;;;1.50;;
80748;SDS011;70145;53.746;9.970;2024-01-15T09:44:24;8.50;;;1.45;;
80748;SDS011;70145;53.746;9.970;2024-01-15T09:46:51;7.55;;;1.25;;
80748;SDS011;70145;53.746;9.970;2024-01-15T09:49:17;5.82;;;1.17;;
80748;SDS011;70145;53.746;9.970;2024-01-15T09:51:43;5.93;;;1.25;;
80748;SDS011;70145;53.746;9.970;2024-01-15T09:54:08;3.67;;;1.20;;
80748;SDS011;70145;53.746;9.970;2024-01-15T09:56:34;3.92;;;0.80;;
80748;SDS011;70145;53.746;9.970;2024-01-15T09:59:00;3.22;;;1.40;;
80748;SDS011;70145;53.746;9.970;2024-01-15T10:01:26;5.57;;;1.60;;
80748;SDS011;70145;53.746;9.970;2024-01-15T10:03:51;7.60;;;2.03;;
80748;SDS011;70145;53.746;9.970;2024-01-15T10:06:18;6.93;;;1.80;;
80748;SDS011;70145;53.746;9.970;2024-01-15T10:08:47;8.30;;;1.70;;
80748;SDS011;70145;53.746;9.970;2024-01-15T10:11:14;7.28;;;1.63;;
80748;SDS011;70145;53.746;9.970;2024-01-15T10:13:40;4.65;;;0.85;;
80748;SDS011;70145;53.746;9.970;2024-01-15T10:16:05;6.88;;;1.98;;
80748;SDS011;70145;53.746;9.970;2024-01-15T10:18:31;6.43;;;1.30;;
80748;SDS011;70145;53.746;9.970;2024-01-15T10:20:57;5.18;;;1.13;;
80748;SDS011;70145;53.746;9.970;2024-01-15T10:23:23;4.55;;;1.33;;
80748;SDS011;70145;53.746;9.970;2024-01-15T10:25:49;4.75;;;1.23;;
80748;SDS011;70145;53.746;9.970;2024-01-15T10:28:16;7.93;;;1.05;;
80748;SDS011;70145;53.746;9.970;2024-01-15T10:30:44;7.28;;;2.08;;
80748;SDS011;70145;53.746;9.970;2024-01-15T10:33:09;4.72;;;1.50;;
80748;SDS011;70145;53.746;9.970;2024-01-15T10:35:35;5.75;;;1.85;;
80748;SDS011;70145;53.746;9.970;2024-01-15T10:38:02;5.75;;;1.17;;
80748;SDS011;70145;53.746;9.970;2024-01-15T10:40:28;4.32;;;1.20;;
80748;SDS011;70145;53.746;9.970;2024-01-15T10:42:54;5.20;;;0.98;;
80748;SDS011;70145;53.746;9.970;2024-01-15T10:45:20;5.50;;;1.55;;
80748;SDS011;70145;53.746;9.970;2024-01-15T10:47:45;3.92;;;0.98;;
80748;SDS011;70145;53.746;9.970;2024-01-15T10:50:11;8.68;;;0.70;;
80748;SDS011;70145;53.746;9.970;2024-01-15T10:52:38;5.72;;;1.13;;
80748;SDS011;70145;53.746;9.970;2024-01-15T10:55:05;5.25;;;1.23;;
80748;SDS011;70145;53.746;9.970;2024-01-15T10:57:33;6.07;;;0.95;;
80748;SDS011;70145;53.746;9.970;2024-01-15T10:59:59;4.75;;;1.25;;
80748;SDS011;70145;53.746;9.970;2024-01-15T11:02:27;6.10;;;1.20;;
80748;SDS011;70145;53.746;9.970;2024-01-15T11:04:53;6.25;;;0.88;;
80748;SDS011;70145;53.746;9.970;2024-01-15T11:07:20;7.23;;;1.60;;
80748;SDS011;70145;53.746;9.970;2024-01-15T11:09:46;8.30;;;1.08;;
80748;SDS011;70145;53.746;9.970;2024-01-15T11:12:12;4.30;;;0.88;;
80748;SDS011;70145;53.746;9.970;2024-01-15T11:14:42;2.85;;;0.47;;
80748;SDS011;70145;53.746;9.970;2024-01-15T11:17:11;1.83;;;0.38;;
80748;SDS011;70145;53.746;9.970;2024-01-15T11:22:07;1.92;;;0.40;;
80748;SDS011;70145;53.746;9.970;2024-01-15T11:24:33;2.53;;;0.32;;
80748;SDS011;70145;53.746;9.970;2024-01-15T11:27:03;4.38;;;0.47;;
80748;SDS011;70145;53.746;9.970;2024-01-15T11:29:30;4.38;;;0.40;;
80748;SDS011;70145;53.746;9.970;2024-01-15T11:31:58;1.85;;;0.40;;
80748;SDS011;70145;53.746;9.970;2024-01-15T11:37:19;0.80;;;0.30;;
80748;SDS011;70145;53.746;9.970;2024-01-15T11:39:45;0.65;;;0.30;;
80748;SDS011;70145;53.746;9.970;2024-01-15T11:42:12;2.30;;;0.40;;
80748;SDS011;70145;53.746;9.970;2024-01-15T11:44:38;1.88;;;0.40;;
80748;SDS011;70145;53.746;9.970;2024-01-15T11:47:08;0.63;;;0.20;;
80748;SDS011;70145;53.746;9.970;2024-01-15T11:52:25;3.55;;;0.40;;
80748;SDS011;70145;53.746;9.970;2024-01-15T11:57:33;4.97;;;0.43;;
80748;SDS011;70145;53.746;9.970;2024-01-15T12:00:05;2.33;;;0.20;;
80748;SDS011;70145;53.746;9.970;2024-01-15T12:02:34;2.55;;;0.80;;
80748;SDS011;70145;53.746;9.970;2024-01-15T12:04:59;3.60;;;0.60;;
80748;SDS011;70145;53.746;9.970;2024-01-15T12:07:24;2.67;;;0.40;;
80748;SDS011;70145;53.746;9.970;2024-01-15T12:09:50;2.40;;;0.70;;
80748;SDS011;70145;53.746;9.970;2024-01-15T12:12:21;1.30;;;0.30;;
80748;SDS011;70145;53.746;9.970;2024-01-15T12:14:53;1.27;;;0.30;;
80748;SDS011;70145;53.746;9.970;2024-01-15T12:17:18;1.75;;;0.20;;
80748;SDS011;70145;53.746;9.970;2024-01-15T12:19:43;1.70;;;0.30;;
80748;SDS011;70145;53.746;9.970;2024-01-15T12:22:09;2.00;;;0.38;;
80748;SDS011;70145;53.746;9.970;2024-01-15T12:24:34;1.52;;;0.40;;
80748;SDS011;70145;53.746;9.970;2024-01-15T12:27:00;0.93;;;0.20;;
80748;SDS011;70145;53.746;9.970;2024-01-15T12:29:26;1.08;;;0.40;;
80748;SDS011;70145;53.746;9.970;2024-01-15T12:31:52;2.03;;;0.30;;
80748;SDS011;70145;53.746;9.970;2024-01-15T12:34:18;2.40;;;0.43;;
80748;SDS011;70145;53.746;9.970;2024-01-15T12:36:43;2.07;;;0.30;;
80748;SDS011;70145;53.746;9.970;2024-01-15T12:39:11;0.82;;;0.20;;
80748;SDS011;70145;53.746;9.970;2024-01-15T12:41:37;1.00;;;0.20;;
80748;SDS011;70145;53.746;9.970;2024-01-15T12:44:03;2.20;;;0.20;;
80748;SDS011;70145;53.746;9.970;2024-01-15T12:46:29;5.13;;;0.45;;
80748;SDS011;70145;53.746;9.970;2024-01-15T12:48:55;1.60;;;0.22;;
80748;SDS011;70145;53.746;9.970;2024-01-15T12:51:24;1.52;;;0.30;;
80748;SDS011;70145;53.746;9.970;2024-01-15T12:53:51;3.25;;;0.60;;
80748;SDS011;70145;53.746;9.970;2024-01-15T12:56:16;2.60;;;0.70;;
80748;SDS011;70145;53.746;9.970;2024-01-15T12:58:42;1.53;;;0.77;;
80748;SDS011;70145;53.746;9.970;2024-01-15T13:01:07;1.83;;;0.60;;
80748;SDS011;70145;53.746;9.970;2024-01-15T13:03:32;1.00;;;0.30;;
80748;SDS011;70145;53.746;9.970;2024-01-15T13:05:58;3.55;;;0.80;;
80748;SDS011;70145;53.746;9.970;2024-01-15T13:08:23;2.30;;;0.40;;
80748;SDS011;70145;53.746;9.970;2024-01-15T13:10:51;2.25;;;0.38;;
80748;SDS011;70145;53.746;9.970;2024-01-15T13:13:17;1.80;;;0.63;;
80748;SDS011;70145;53.746;9.970;2024-01-15T13:15:42;2.67;;;1.10;;
80748;SDS011;70145;53.746;9.970;2024-01-15T13:18:08;2.17;;;0.63;;
80748;SDS011;70145;53.746;9.970;2024-01-15T13:20:33;1.70;;;0.20;;
80748;SDS011;70145;53.746;9.970;2024-01-15T13:22:58;2.43;;;0.53;;
80748;SDS011;70145;53.746;9.970;2024-01-15T13:25:24;2.72;;;0.80;;
80748;SDS011;70145;53.746;9.970;2024-01-15T13:27:49;2.67;;;0.40;;
80748;SDS011;70145;53.746;9.970;2024-01-15T13:30:15;1.47;;;0.80;;
80748;SDS011;70145;53.746;9.970;2024-01-15T13:32:40;1.45;;;0.73;;
80748;SDS011;70145;53.746;9.970;2024-01-15T13:35:06;2.25;;;0.82;;
80748;SDS011;70145;53.746;9.970;2024-01-15T13:37:34;2.30;;;1.00;;
80748;SDS011;70145;53.746;9.970;2024-01-15T13:40:02;2.72;;;0.75;;
80748;SDS011;70145;53.746;9.970;2024-01-15T13:42:28;1.80;;;0.55;;
80748;SDS011;70145;53.746;9.970;2024-01-15T14:31:39;1.70;;;0.40;;
80748;SDS011;70145;53.746;9.970;2024-01-15T14:34:04;2.97;;;0.73;;
80748;SDS011;70145;53.746;9.970;2024-01-15T14:36:30;1.23;;;0.43;;
80748;SDS011;70145;53.746;9.970;2024-01-15T14:38:55;0.80;;;0.30;;
80748;SDS011;70145;53.746;9.970;2024-01-15T14:41:20;1.60;;;0.70;;
80748;SDS011;70145;53.746;9.970;2024-01-15T14:43:45;1.53;;;0.83;;
80748;SDS011;70145;53.746;9.970;2024-01-15T14:46:11;2.72;;;0.80;;
80748;SDS011;70145;53.746;9.970;2024-01-15T14:48:36;6.05;;;1.38;;
80748;SDS011;70145;53.746;9.970;2024-01-15T14:51:02;3.10;;;1.83;;
80748;SDS011;70145;53.746;9.970;2024-01-15T14:53:28;2.88;;;1.40;;
80748;SDS011;70145;53.746;9.970;2024-01-15T14:55:53;4.35;;;1.40;;
80748;SDS011;70145;53.746;9.970;2024-01-15T14:58:19;2.95;;;1.30;;
80748;SDS011;70145;53.746;9.970;2024-01-15T15:00:44;1.80;;;0.65;;
80748;SDS011;70145;53.746;9.970;2024-01-15T15:03:11;2.15;;;0.60;;
80748;SDS011;70145;53.746;9.970;2024-01-15T15:05:38;1.58;;;0.60;;
80748;SDS011;70145;53.746;9.970;2024-01-15T15:08:04;2.05;;;0.70;;
80748;SDS011;70145;53.746;9.970;2024-01-15T15:10:33;2.28;;;0.98;;
80748;SDS011;70145;53.746;9.970;2024-01-15T15:12:58;2.07;;;1.10;;
80748;SDS011;70145;53.746;9.970;2024-01-15T15:15:24;3.10;;;1.00;;
80748;SDS011;70145;53.746;9.970;2024-01-15T15:17:49;2.30;;;1.13;;
80748;SDS011;70145;53.746;9.970;2024-01-15T15:20:15;3.47;;;1.10;;
80748;SDS011;70145;53.746;9.970;2024-01-15T15:22:40;3.70;;;1.02;;
80748;SDS011;70145;53.746;9.970;2024-01-15T15:25:05;2.33;;;1.10;;
80748;SDS011;70145;53.746;9.970;2024-01-15T15:27:33;2.63;;;1.33;;
80748;SDS011;70145;53.746;9.970;2024-01-15T15:29:59;3.05;;;1.15;;
80748;SDS011;70145;53.746;9.970;2024-01-15T15:32:25;3.07;;;0.80;;
80748;SDS011;70145;53.746;9.970;2024-01-15T15:34:50;3.00;;;0.83;;
80748;SDS011;70145;53.746;9.970;2024-01-15T15:37:15;1.95;;;1.00;;
80748;SDS011;70145;53.746;9.970;2024-01-15T15:39:41;2.05;;;0.70;;